createdAt,value
2024-01-14T00:00:50.422Z,61.10
2024-01-14T00:03:39.035Z,58.60
2024-01-14T00:06:07.632Z,58.40
2024-01-14T00:08:36.227Z,59.10
2024-01-14T00:11:05.372Z,59.60
2024-01-14T00:13:33.556Z,60.20
2024-01-14T00:16:01.855Z,61.30
2024-01-14T00:18:30.098Z,77.90
2024-01-14T00:20:58.731Z,62.50
2024-01-14T00:23:27.195Z,60.60
2024-01-14T00:25:55.952Z,67.70
2024-01-14T00:28:24.373Z,62.10
2024-01-14T00:30:52.769Z,62.00
2024-01-14T00:33:21.343Z,61.60
2024-01-14T00:35:50.074Z,56.70
2024-01-14T00:38:18.511Z,54.30
2024-01-14T00:40:46.581Z,64.80
2024-01-14T00:43:15.149Z,56.50
2024-01-14T00:45:43.429Z,54.10
2024-01-14T00:48:15.020Z,49.60
2024-01-14T00:50:43.392Z,49.20
2024-01-14T00:53:11.964Z,44.50
2024-01-14T00:55:40.468Z,48.90
2024-01-14T00:58:08.811Z,48.80
2024-01-14T01:00:37.390Z,47.30
2024-01-14T01:03:06.818Z,44.70
2024-01-14T01:05:36.142Z,52.10
2024-01-14T01:08:04.949Z,43.50
2024-01-14T01:10:33.115Z,47.80
2024-01-14T01:13:01.478Z,41.90
2024-01-14T01:15:30.197Z,43.00
2024-01-14T01:17:58.675Z,49.30
2024-01-14T01:20:27.372Z,44.90
2024-01-14T01:22:55.711Z,44.70
2024-01-14T01:25:24.547Z,39.70
2024-01-14T01:27:53.456Z,39.70
2024-01-14T01:30:22.015Z,39.30
2024-01-14T01:32:50.996Z,40.00
2024-01-14T01:35:19.563Z,31.30
2024-01-14T01:37:47.659Z,39.20
2024-01-14T01:40:16.250Z,41.80
2024-01-14T01:42:45.004Z,39.20
2024-01-14T01:45:13.608Z,39.80
2024-01-14T01:47:41.854Z,40.60
2024-01-14T01:50:11.116Z,39.10
2024-01-14T01:52:40.970Z,37.10
2024-01-14T01:55:12.085Z,38.50
2024-01-14T01:57:40.340Z,36.00
2024-01-14T02:00:12.471Z,42.10
2024-01-14T02:02:45.322Z,41.60
2024-01-14T02:05:14.760Z,42.40
2024-01-14T02:07:44.633Z,38.30
2024-01-14T02:10:13.504Z,41.70
2024-01-14T02:12:41.879Z,40.30
2024-01-14T02:15:10.490Z,40.50
2024-01-14T02:17:38.818Z,33.80
2024-01-14T02:20:09.621Z,41.30
2024-01-14T02:22:41.638Z,32.50
2024-01-14T02:25:10.116Z,37.90
2024-01-14T02:27:39.018Z,39.00
2024-01-14T02:30:10.870Z,36.40
2024-01-14T02:32:40.197Z,50.90
2024-01-14T02:35:09.571Z,40.10
2024-01-14T02:37:44.704Z,35.30
2024-01-14T02:40:13.585Z,35.30
2024-01-14T02:42:42.231Z,35.60
2024-01-14T02:45:11.684Z,39.90
2024-01-14T02:47:40.941Z,32.50
2024-01-14T02:50:10.121Z,42.10
2024-01-14T02:52:38.322Z,47.80
2024-01-14T02:55:07.583Z,38.20
2024-01-14T02:57:35.966Z,40.10
2024-01-14T03:00:05.639Z,38.50
2024-01-14T03:02:34.329Z,43.20
2024-01-14T03:05:02.529Z,43.90
2024-01-14T03:07:30.711Z,39.30
2024-01-14T03:09:59.180Z,42.60
2024-01-14T03:12:27.626Z,41.30
2024-01-14T03:14:56.145Z,48.00
2024-01-14T03:17:24.754Z,55.90
2024-01-14T03:19:53.314Z,40.40
2024-01-14T03:22:21.618Z,40.70
2024-01-14T03:24:49.809Z,47.70
2024-01-14T03:27:17.961Z,46.90
2024-01-14T03:29:46.100Z,48.20
2024-01-14T03:32:14.277Z,51.00
2024-01-14T03:34:42.497Z,54.60
2024-01-14T03:37:10.715Z,45.40
2024-01-14T03:39:39.030Z,46.00
2024-01-14T03:42:07.800Z,51.70
2024-01-14T03:44:36.122Z,42.80
2024-01-14T03:47:05.023Z,45.50
2024-01-14T03:49:33.586Z,44.00
2024-01-14T03:52:01.853Z,47.80
2024-01-14T03:54:30.185Z,46.50
2024-01-14T03:56:58.510Z,38.00
2024-01-14T03:59:26.944Z,41.80
2024-01-14T04:01:55.151Z,41.00
2024-01-14T04:04:23.411Z,48.30
2024-01-14T04:06:51.775Z,42.10
2024-01-14T04:09:20.384Z,47.80
2024-01-14T04:11:48.884Z,47.50
2024-01-14T04:14:17.316Z,84.90
2024-01-14T04:16:45.852Z,55.40
2024-01-14T04:19:14.245Z,50.00
2024-01-14T04:21:42.689Z,52.10
2024-01-14T04:24:11.231Z,56.20
2024-01-14T04:26:39.978Z,48.00
2024-01-14T04:29:08.141Z,50.00
2024-01-14T04:31:36.594Z,40.30
2024-01-14T04:34:05.939Z,40.90
2024-01-14T04:36:34.425Z,40.80
2024-01-14T04:39:03.476Z,44.40
2024-01-14T04:41:31.680Z,43.90
2024-01-14T04:44:00.254Z,34.70
2024-01-14T04:46:28.750Z,43.60
2024-01-14T04:48:57.233Z,45.90
2024-01-14T04:51:25.934Z,46.70
2024-01-14T04:53:54.239Z,37.10
2024-01-14T04:56:22.527Z,44.90
2024-01-14T04:58:51.182Z,52.90
2024-01-14T05:01:19.356Z,65.80
2024-01-14T05:03:47.846Z,57.10
2024-01-14T05:06:16.551Z,57.40
2024-01-14T05:08:45.081Z,58.10
2024-01-14T05:11:13.202Z,37.80
2024-01-14T05:13:41.955Z,47.60
2024-01-14T05:16:11.281Z,34.50
2024-01-14T05:18:39.663Z,39.10
2024-01-14T05:21:07.944Z,43.70
2024-01-14T05:23:36.317Z,39.40
2024-01-14T05:26:04.967Z,40.10
2024-01-14T05:28:33.500Z,41.70
2024-01-14T05:31:02.199Z,34.10
2024-01-14T05:33:30.526Z,35.50
2024-01-14T05:35:58.922Z,33.00
2024-01-14T05:38:27.073Z,26.60
2024-01-14T05:40:56.309Z,33.70
2024-01-14T05:43:25.033Z,31.20
2024-01-14T05:45:53.470Z,34.70
2024-01-14T05:48:24.019Z,30.70
2024-01-14T05:50:52.959Z,38.70
2024-01-14T05:53:21.411Z,28.60
2024-01-14T05:55:49.792Z,34.20
2024-01-14T05:58:17.910Z,30.60
2024-01-14T06:00:46.316Z,32.10
2024-01-14T06:03:14.633Z,35.20
2024-01-14T06:05:44.034Z,28.30
2024-01-14T06:08:12.411Z,29.60
2024-01-14T06:10:40.771Z,32.30
2024-01-14T06:13:09.464Z,36.40
2024-01-14T06:15:37.878Z,28.80
2024-01-14T06:18:06.430Z,40.70
2024-01-14T06:20:34.838Z,40.30
2024-01-14T06:23:03.002Z,29.30
2024-01-14T06:25:31.164Z,31.70
2024-01-14T06:27:59.318Z,28.50
2024-01-14T06:30:27.890Z,36.90
2024-01-14T06:32:57.107Z,37.20
2024-01-14T06:35:25.688Z,34.70
2024-01-14T06:37:54.160Z,31.60
2024-01-14T06:40:28.724Z,35.10
2024-01-14T06:43:00.465Z,33.20
2024-01-14T06:45:29.183Z,40.00
2024-01-14T06:47:57.809Z,40.50
2024-01-14T06:50:26.480Z,43.10
2024-01-14T06:52:54.639Z,36.40
2024-01-14T06:55:23.036Z,41.20
2024-01-14T06:57:51.260Z,37.10
2024-01-14T07:00:19.941Z,39.50
2024-01-14T07:02:48.176Z,39.20
2024-01-14T07:05:16.949Z,36.10
2024-01-14T07:07:45.851Z,33.60
2024-01-14T07:10:15.078Z,33.90
2024-01-14T07:12:43.383Z,36.60
2024-01-14T07:15:11.814Z,39.40
2024-01-14T07:17:54.528Z,39.00
2024-01-14T07:20:25.515Z,35.40
2024-01-14T07:22:54.266Z,44.30
2024-01-14T07:25:22.668Z,40.90
2024-01-14T07:27:50.846Z,41.30
2024-01-14T07:30:20.044Z,39.80
2024-01-14T07:32:48.372Z,38.00
2024-01-14T07:35:16.773Z,40.40
2024-01-14T07:37:45.244Z,34.80
2024-01-14T07:40:14.110Z,53.60
2024-01-14T07:42:42.597Z,61.20
2024-01-14T07:45:11.400Z,51.20
2024-01-14T07:47:40.313Z,46.70
2024-01-14T07:50:09.522Z,45.80
2024-01-14T07:52:37.705Z,45.30
2024-01-14T07:55:06.343Z,42.50
2024-01-14T07:57:35.695Z,44.40
2024-01-14T08:00:05.044Z,41.30
2024-01-14T08:02:40.565Z,47.10
2024-01-14T08:05:13.890Z,46.10
2024-01-14T08:07:42.959Z,51.90
2024-01-14T08:10:11.772Z,54.80
2024-01-14T08:12:42.152Z,57.00
2024-01-14T08:15:11.524Z,53.90
2024-01-14T08:17:40.096Z,55.90
2024-01-14T08:20:11.378Z,49.50
2024-01-14T08:22:41.112Z,57.50
2024-01-14T08:25:10.875Z,53.70
2024-01-14T08:27:39.848Z,51.20
2024-01-14T08:30:09.056Z,57.00
2024-01-14T08:32:37.674Z,51.60
2024-01-14T08:35:06.693Z,58.30
2024-01-14T08:37:35.191Z,55.90
2024-01-14T08:40:04.163Z,63.00
2024-01-14T08:42:32.426Z,55.30
2024-01-14T08:45:00.886Z,60.70
2024-01-14T08:47:29.168Z,58.40
2024-01-14T08:49:57.752Z,53.40
2024-01-14T08:52:26.122Z,61.40
2024-01-14T08:54:55.717Z,63.30
2024-01-14T08:57:25.426Z,64.20
2024-01-14T08:59:53.949Z,58.90
2024-01-14T09:02:22.735Z,64.40
2024-01-14T09:04:51.208Z,58.90
2024-01-14T09:07:19.781Z,64.00
2024-01-14T09:09:49.361Z,72.70
2024-01-14T09:12:17.997Z,62.60
2024-01-14T09:14:46.254Z,64.00
2024-01-14T09:17:14.525Z,66.80
2024-01-14T09:19:42.777Z,56.80
2024-01-14T09:22:11.191Z,58.50
2024-01-14T09:24:45.098Z,60.70
2024-01-14T09:27:17.326Z,59.70
2024-01-14T09:29:45.711Z,56.60
2024-01-14T09:32:13.820Z,64.10
2024-01-14T09:34:42.368Z,57.90
2024-01-14T09:37:11.217Z,57.40
2024-01-14T09:39:39.999Z,56.80
2024-01-14T09:42:38.475Z,63.00
2024-01-14T09:45:07.677Z,58.00
2024-01-14T09:47:36.738Z,60.80
2024-01-14T09:50:07.972Z,61.00
2024-01-14T09:52:38.755Z,58.00
2024-01-14T09:55:07.717Z,57.20
2024-01-14T09:57:37.063Z,54.70
2024-01-14T10:00:06.853Z,55.40
2024-01-14T10:02:35.614Z,53.20
2024-01-14T10:05:04.130Z,59.00
2024-01-14T10:07:34.359Z,61.90
2024-01-14T10:10:02.846Z,55.00
2024-01-14T10:12:32.365Z,58.70
2024-01-14T10:15:02.049Z,60.80
2024-01-14T10:17:31.342Z,57.60
2024-01-14T10:20:00.022Z,58.80
2024-01-14T10:22:30.619Z,57.10
2024-01-14T10:24:58.814Z,59.60
2024-01-14T10:27:35.513Z,57.50
2024-01-14T10:30:12.912Z,61.80
2024-01-14T10:33:16.432Z,61.40
2024-01-14T10:35:32.045Z,57.30
2024-01-14T10:38:02.652Z,62.50
2024-01-14T10:40:31.537Z,52.70
2024-01-14T10:43:00.666Z,58.90
2024-01-14T10:45:32.266Z,60.90
2024-01-14T10:48:05.934Z,58.60
2024-01-14T10:53:30.254Z,54.30
2024-01-14T10:56:03.139Z,57.30
2024-01-14T10:58:33.909Z,59.20
2024-01-14T11:01:06.395Z,60.00
2024-01-14T11:03:39.108Z,51.70
2024-01-14T11:06:08.128Z,58.50
2024-01-14T11:08:38.335Z,59.70
2024-01-14T11:11:07.249Z,60.10
2024-01-14T11:14:19.509Z,64.20
2024-01-14T11:17:00.604Z,55.80
2024-01-14T11:19:37.235Z,54.20
2024-01-14T11:22:29.274Z,54.30
2024-01-14T11:25:05.294Z,57.10
2024-01-14T11:27:35.799Z,55.50
2024-01-14T11:30:04.596Z,57.30
2024-01-14T11:32:33.148Z,60.00
2024-01-14T11:35:03.785Z,57.50
2024-01-14T11:37:39.323Z,59.20
2024-01-14T11:40:07.727Z,63.40
2024-01-14T11:42:37.037Z,59.10
2024-01-14T11:45:29.251Z,58.30
2024-01-14T11:50:33.835Z,64.80
2024-01-14T11:53:05.908Z,71.50
2024-01-14T11:55:35.274Z,67.70
2024-01-14T11:58:10.968Z,64.60
2024-01-14T12:00:41.781Z,65.40
2024-01-14T12:03:15.946Z,59.30
2024-01-14T12:05:45.922Z,62.50
2024-01-14T12:08:15.227Z,63.30
2024-01-14T12:10:43.679Z,61.10
2024-01-14T12:13:12.043Z,61.90
2024-01-14T12:15:44.529Z,69.40
2024-01-14T12:18:17.087Z,66.00
2024-01-14T12:20:45.794Z,66.80
2024-01-14T12:23:14.645Z,65.50
2024-01-14T12:25:45.562Z,67.00
2024-01-14T12:28:14.082Z,64.80
2024-01-14T12:30:42.427Z,62.40
2024-01-14T12:33:14.911Z,65.00
2024-01-14T12:35:43.647Z,66.80
2024-01-14T12:38:14.886Z,180.90
2024-01-14T12:40:45.567Z,66.40
2024-01-14T12:43:14.393Z,61.70
2024-01-14T12:45:50.645Z,58.50
2024-01-14T12:48:23.660Z,59.30
2024-01-14T12:50:59.297Z,70.30
2024-01-14T12:53:30.067Z,70.10
2024-01-14T12:56:28.212Z,64.00
2024-01-14T12:58:56.583Z,59.30
2024-01-14T13:01:28.884Z,63.60
2024-01-14T13:04:00.516Z,58.70
2024-01-14T13:06:28.861Z,71.90
2024-01-14T13:08:57.570Z,69.80
2024-01-14T13:11:28.290Z,75.70
2024-01-14T13:13:56.695Z,72.20
2024-01-14T13:16:25.915Z,68.10
2024-01-14T13:18:57.845Z,71.50
2024-01-14T13:21:28.780Z,72.90
2024-01-14T13:24:06.213Z,83.20
2024-01-14T13:26:43.771Z,79.20
2024-01-14T13:29:13.484Z,80.20
2024-01-14T13:31:44.779Z,78.60
2024-01-14T13:34:15.224Z,75.40
2024-01-14T13:36:43.867Z,76.30
2024-01-14T13:39:12.448Z,82.10
2024-01-14T13:41:43.325Z,76.60
2024-01-14T13:44:16.763Z,80.90
2024-01-14T13:46:49.284Z,71.00
2024-01-14T13:49:17.771Z,74.00
2024-01-14T13:51:52.226Z,75.50
2024-01-14T13:54:20.547Z,67.60
2024-01-14T13:56:51.911Z,67.00
2024-01-14T13:59:23.735Z,74.90
2024-01-14T14:01:53.610Z,65.80
2024-01-14T14:06:53.288Z,72.40
2024-01-14T14:09:21.678Z,73.20
2024-01-14T14:11:50.204Z,64.40
2024-01-14T14:14:18.402Z,69.50
2024-01-14T14:16:49.164Z,76.90
2024-01-14T14:19:19.053Z,77.70
2024-01-14T14:21:58.109Z,77.90
2024-01-14T14:24:32.006Z,66.20
2024-01-14T14:27:00.632Z,71.30
2024-01-14T14:29:29.367Z,68.70
2024-01-14T14:31:58.128Z,64.80
2024-01-14T14:34:27.365Z,65.80
2024-01-14T14:36:56.154Z,62.50
2024-01-14T14:39:27.828Z,58.30
2024-01-14T14:41:58.569Z,68.00
2024-01-14T14:44:27.156Z,62.20
2024-01-14T14:46:57.411Z,68.10
2024-01-14T14:49:25.875Z,58.70
2024-01-14T14:51:59.830Z,62.60
2024-01-14T14:56:58.588Z,59.90
2024-01-14T14:59:26.806Z,58.30
2024-01-14T15:01:59.351Z,64.10
2024-01-14T15:04:29.809Z,69.80
2024-01-14T15:07:00.355Z,61.10
2024-01-14T15:09:28.781Z,67.60
2024-01-14T15:11:57.046Z,66.00
2024-01-14T15:14:25.519Z,66.10
2024-01-14T15:16:58.756Z,59.00
2024-01-14T15:19:29.494Z,66.90
2024-01-14T15:22:02.516Z,66.90
2024-01-14T15:24:33.946Z,69.00
2024-01-14T15:27:02.258Z,64.90
2024-01-14T15:29:35.480Z,68.80
2024-01-14T15:32:06.112Z,71.10
2024-01-14T15:34:34.790Z,59.60
2024-01-14T15:37:03.495Z,64.70
2024-01-14T15:39:39.277Z,67.50
2024-01-14T15:42:07.954Z,73.90
2024-01-14T15:44:37.291Z,58.20
2024-01-14T15:47:05.612Z,66.20
2024-01-14T15:49:35.431Z,62.00
2024-01-14T15:52:05.409Z,71.00
2024-01-14T15:54:33.591Z,58.10
2024-01-14T15:57:08.245Z,61.70
2024-01-14T15:59:36.920Z,67.20
2024-01-14T16:02:05.290Z,76.60
2024-01-14T16:04:33.613Z,72.80
2024-01-14T16:07:04.545Z,66.30
2024-01-14T16:09:33.273Z,71.10
2024-01-14T16:12:03.943Z,69.90
2024-01-14T16:14:33.235Z,70.60
2024-01-14T16:17:13.720Z,68.50
2024-01-14T16:19:45.678Z,81.50
2024-01-14T16:22:13.958Z,72.60
2024-01-14T16:24:45.013Z,86.80
2024-01-14T16:27:13.564Z,87.90
2024-01-14T16:29:41.673Z,91.50
2024-01-14T16:32:11.018Z,78.70
2024-01-14T16:34:39.991Z,77.40
2024-01-14T16:37:08.883Z,81.80
2024-01-14T16:39:37.383Z,77.00
2024-01-14T16:42:09.286Z,73.70
2024-01-14T16:44:38.856Z,64.70
2024-01-14T16:47:06.999Z,70.50
2024-01-14T16:49:35.271Z,74.20
2024-01-14T16:52:04.581Z,87.50
2024-01-14T16:54:35.978Z,68.70
2024-01-14T16:57:05.503Z,70.90
2024-01-14T16:59:33.979Z,76.10
2024-01-14T17:02:02.562Z,67.40
2024-01-14T17:04:33.187Z,67.70
2024-01-14T17:07:01.875Z,66.00
2024-01-14T17:09:33.267Z,82.40
2024-01-14T17:12:02.383Z,69.90
2024-01-14T17:14:33.915Z,73.40
2024-01-14T17:17:03.039Z,70.80
2024-01-14T17:19:33.326Z,80.00
2024-01-14T17:22:01.778Z,64.10
2024-01-14T17:24:35.098Z,75.60
2024-01-14T17:27:06.223Z,75.60
2024-01-14T17:29:34.939Z,68.10
2024-01-14T17:32:09.700Z,83.30
2024-01-14T17:34:42.340Z,71.00
2024-01-14T17:40:00.594Z,72.60
2024-01-14T17:42:36.355Z,89.70
2024-01-14T17:45:21.758Z,75.60
2024-01-14T17:47:50.427Z,69.70
2024-01-14T17:50:30.460Z,83.20
2024-01-14T17:53:05.543Z,78.40
2024-01-14T17:55:42.416Z,88.60
2024-01-14T17:58:11.318Z,84.10
2024-01-14T18:00:46.546Z,90.50
2024-01-14T18:03:23.312Z,84.60
2024-01-14T18:05:54.937Z,97.20
2024-01-14T18:08:25.795Z,83.40
2024-01-14T18:11:11.829Z,86.70
2024-01-14T18:13:40.931Z,79.40
2024-01-14T18:16:09.223Z,91.60
2024-01-14T18:18:43.418Z,80.90
2024-01-14T18:23:45.281Z,72.70
2024-01-14T18:26:20.510Z,69.00
2024-01-14T18:28:51.780Z,72.60
2024-01-14T18:31:29.099Z,71.40
2024-01-14T18:34:08.953Z,67.40
2024-01-14T18:36:37.729Z,66.30
2024-01-14T18:39:07.513Z,69.60
2024-01-14T18:41:39.961Z,74.60
2024-01-14T18:44:25.786Z,67.30
2024-01-14T18:47:01.949Z,69.50
2024-01-14T18:49:30.281Z,66.00
2024-01-14T18:52:01.707Z,74.10
2024-01-14T18:54:36.209Z,69.80
2024-01-14T18:57:18.138Z,70.90
2024-01-14T18:59:51.128Z,72.10
2024-01-14T19:02:20.556Z,72.30
2024-01-14T19:04:53.913Z,68.70
2024-01-14T19:07:23.250Z,65.60
2024-01-14T19:09:57.889Z,65.50
2024-01-14T19:12:33.116Z,61.70
2024-01-14T19:15:05.085Z,59.50
2024-01-14T19:17:38.455Z,62.10
2024-01-14T19:20:12.871Z,63.60
2024-01-14T19:22:49.227Z,65.40
2024-01-14T19:25:30.489Z,67.90
2024-01-14T19:28:00.042Z,69.70
2024-01-14T19:30:31.743Z,65.00
2024-01-14T19:33:02.117Z,68.80
2024-01-14T19:35:35.909Z,68.90
2024-01-14T19:38:07.562Z,67.80
2024-01-14T19:40:42.387Z,191.80
2024-01-14T19:43:30.398Z,77.70
2024-01-14T19:46:05.502Z,65.60
2024-01-14T19:51:13.436Z,59.50
2024-01-14T19:53:45.096Z,63.60
2024-01-14T19:56:29.624Z,66.40
2024-01-14T19:58:59.601Z,80.30
2024-01-14T20:01:37.014Z,114.20
2024-01-14T20:04:06.722Z,103.00
2024-01-14T20:06:50.374Z,83.80
2024-01-14T20:09:25.467Z,77.70
2024-01-14T20:12:00.957Z,79.00
2024-01-14T20:14:32.747Z,99.90
2024-01-14T20:17:03.702Z,94.70
2024-01-14T20:19:41.920Z,88.90
2024-01-14T20:22:12.974Z,91.00
2024-01-14T20:24:41.368Z,90.50
2024-01-14T20:27:10.896Z,89.50
2024-01-14T20:29:41.359Z,81.00
2024-01-14T20:32:12.093Z,85.80
2024-01-14T20:34:46.204Z,77.20
2024-01-14T20:37:27.368Z,70.00
2024-01-14T20:40:03.725Z,73.30
2024-01-14T20:42:33.379Z,85.30
2024-01-14T20:45:01.728Z,83.40
2024-01-14T20:47:38.687Z,65.90
2024-01-14T20:50:18.553Z,66.80
2024-01-14T20:52:51.534Z,71.20
2024-01-14T20:55:20.873Z,69.50
2024-01-14T20:57:54.632Z,71.40
2024-01-14T21:00:25.550Z,71.10
2024-01-14T21:02:54.196Z,65.60
2024-01-14T21:05:23.260Z,70.20
2024-01-14T21:07:56.860Z,70.70
2024-01-14T21:10:28.080Z,64.70
2024-01-14T21:12:57.872Z,65.10
2024-01-14T21:15:26.958Z,71.60
2024-01-14T21:17:55.669Z,73.40
2024-01-14T21:20:24.161Z,77.70
2024-01-14T21:22:52.331Z,74.70
2024-01-14T21:25:23.270Z,73.00
2024-01-14T21:27:58.866Z,76.20
2024-01-14T21:30:30.212Z,74.20
2024-01-14T21:33:08.820Z,72.50
2024-01-14T21:35:37.582Z,72.80
2024-01-14T21:38:06.454Z,70.40
2024-01-14T21:40:34.914Z,80.70
2024-01-14T21:43:05.734Z,75.50
2024-01-14T21:45:33.958Z,79.80
2024-01-14T21:48:05.196Z,74.20
2024-01-14T21:50:35.691Z,74.00
2024-01-14T21:53:03.916Z,68.10
2024-01-14T21:55:42.896Z,61.30
2024-01-14T21:58:11.753Z,74.70
2024-01-14T22:00:40.552Z,81.40
2024-01-14T22:03:09.742Z,84.30
2024-01-14T22:05:38.480Z,81.30
2024-01-14T22:08:06.976Z,76.80
2024-01-14T22:10:35.228Z,72.60
2024-01-14T22:13:03.569Z,70.40
2024-01-14T22:15:32.148Z,80.40
2024-01-14T22:18:02.542Z,82.10
2024-01-14T22:20:30.823Z,73.60
2024-01-14T22:22:59.315Z,67.90
2024-01-14T22:25:27.487Z,80.40
2024-01-14T22:27:55.701Z,71.00
2024-01-14T22:30:24.184Z,71.40
2024-01-14T22:32:52.971Z,84.00
2024-01-14T22:35:21.631Z,76.80
2024-01-14T22:37:49.835Z,70.70
2024-01-14T22:40:18.601Z,63.20
2024-01-14T22:42:46.872Z,75.20
2024-01-14T22:45:15.591Z,73.80
2024-01-14T22:47:44.075Z,74.30
2024-01-14T22:50:12.565Z,68.10
2024-01-14T22:52:40.952Z,67.70
2024-01-14T22:55:10.082Z,75.30
2024-01-14T22:57:38.523Z,77.50
2024-01-14T23:00:09.053Z,75.20
2024-01-14T23:02:37.905Z,68.30
2024-01-14T23:05:07.000Z,69.30
2024-01-14T23:07:35.134Z,78.20
2024-01-14T23:10:03.334Z,71.40
2024-01-14T23:12:31.529Z,69.90
2024-01-14T23:14:59.694Z,76.20
2024-01-14T23:17:27.901Z,73.40
2024-01-14T23:19:56.221Z,74.00
2024-01-14T23:22:25.240Z,69.40
2024-01-14T23:24:53.391Z,74.80
2024-01-14T23:27:21.883Z,68.80
2024-01-14T23:29:50.421Z,79.00
2024-01-14T23:32:18.939Z,84.10
2024-01-14T23:34:47.444Z,80.40
2024-01-14T23:37:15.911Z,70.20
2024-01-14T23:39:44.416Z,69.70
2024-01-14T23:42:12.941Z,74.70
2024-01-14T23:44:41.462Z,74.60
2024-01-14T23:47:09.857Z,68.10
2024-01-14T23:49:38.377Z,63.40
2024-01-14T23:52:07.435Z,64.40
2024-01-14T23:54:35.630Z,64.10
2024-01-14T23:57:05.709Z,76.10
2024-01-14T23:59:33.937Z,64.00
